createdAt,value
2022-08-02T00:00:42.304Z,17.01
2022-08-02T00:03:08.432Z,16.99
2022-08-02T00:05:34.588Z,16.94
2022-08-02T00:08:00.716Z,16.86
2022-08-02T00:10:26.845Z,16.89
2022-08-02T00:12:53.216Z,16.94
2022-08-02T00:15:19.480Z,16.97
2022-08-02T00:17:47.287Z,16.99
2022-08-02T00:20:14.827Z,16.93
2022-08-02T00:22:40.957Z,16.89
2022-08-02T00:25:07.104Z,16.96
2022-08-02T00:27:33.303Z,16.77
2022-08-02T00:29:59.436Z,16.72
2022-08-02T00:32:25.571Z,16.78
2022-08-02T00:34:51.715Z,16.71
2022-08-02T00:37:17.833Z,16.86
2022-08-02T00:39:43.981Z,16.77
2022-08-02T00:42:11.161Z,16.64
2022-08-02T00:44:37.572Z,16.71
2022-08-02T00:47:03.706Z,16.71
2022-08-02T00:49:29.945Z,16.37
2022-08-02T00:51:56.130Z,16.24
2022-08-02T00:54:22.279Z,16.33
2022-08-02T00:56:49.765Z,16.47
2022-08-02T00:59:17.240Z,16.35
2022-08-02T01:01:55.930Z,16.33
2022-08-02T01:04:29.717Z,16.29
2022-08-02T01:06:57.828Z,16.38
2022-08-02T01:09:23.968Z,16.39
2022-08-02T01:11:50.116Z,16.28
2022-08-02T01:14:16.280Z,16.36
2022-08-02T01:16:42.413Z,16.31
2022-08-02T01:19:08.558Z,16.23
2022-08-02T01:21:42.274Z,16.17
2022-08-02T01:24:08.403Z,16.41
2022-08-02T01:26:34.568Z,16.42
2022-08-02T01:29:00.712Z,16.40
2022-08-02T01:31:26.842Z,16.43
2022-08-02T01:33:53.265Z,16.53
2022-08-02T01:36:19.393Z,16.24
2022-08-02T01:38:45.530Z,16.07
2022-08-02T01:41:11.665Z,16.00
2022-08-02T01:43:37.810Z,16.02
2022-08-02T01:46:03.946Z,15.83
2022-08-02T01:48:30.080Z,15.93
2022-08-02T01:50:56.246Z,16.00
2022-08-02T01:53:22.383Z,16.04
2022-08-02T01:55:58.460Z,15.98
2022-08-02T01:58:25.150Z,16.09
2022-08-02T02:00:51.376Z,16.08
2022-08-02T02:03:17.604Z,15.91
2022-08-02T02:05:43.771Z,15.94
2022-08-02T02:08:09.927Z,16.05
2022-08-02T02:10:36.068Z,15.97
2022-08-02T02:13:02.193Z,16.08
2022-08-02T02:15:28.323Z,16.06
2022-08-02T02:18:12.585Z,16.05
2022-08-02T02:20:39.966Z,15.95
2022-08-02T02:23:06.105Z,15.91
2022-08-02T02:25:35.623Z,15.84
2022-08-02T02:28:03.073Z,15.71
2022-08-02T02:30:29.217Z,15.77
2022-08-02T02:32:55.354Z,15.90
2022-08-02T02:35:21.809Z,15.83
2022-08-02T02:37:47.951Z,15.73
2022-08-02T02:40:14.080Z,15.58
2022-08-02T02:42:41.197Z,15.66
2022-08-02T02:45:07.528Z,15.62
2022-08-02T02:47:40.806Z,15.69
2022-08-02T02:50:07.849Z,15.73
2022-08-02T02:52:33.995Z,15.48
2022-08-02T02:55:00.136Z,15.52
2022-08-02T02:57:26.277Z,15.66
2022-08-02T02:59:52.414Z,15.57
2022-08-02T03:02:18.536Z,15.50
2022-08-02T03:04:55.461Z,15.57
2022-08-02T03:07:23.745Z,15.61
2022-08-02T03:09:54.268Z,15.42
2022-08-02T03:12:21.021Z,15.27
2022-08-02T03:14:49.397Z,15.17
2022-08-02T03:17:15.773Z,15.15
2022-08-02T03:19:41.928Z,15.19
2022-08-02T03:22:08.140Z,15.25
2022-08-02T03:24:34.456Z,15.29
2022-08-02T03:27:00.584Z,15.31
2022-08-02T03:29:26.723Z,15.45
2022-08-02T03:31:53.226Z,15.52
2022-08-02T03:34:19.355Z,15.55
2022-08-02T03:36:45.484Z,15.37
2022-08-02T03:39:11.634Z,15.40
2022-08-02T03:41:37.769Z,15.46
2022-08-02T03:44:03.893Z,15.30
2022-08-02T03:46:30.081Z,15.20
2022-08-02T03:48:56.293Z,15.25
2022-08-02T03:51:22.469Z,15.17
2022-08-02T03:53:48.614Z,15.11
2022-08-02T03:56:14.770Z,15.14
2022-08-02T03:58:42.777Z,15.23
2022-08-02T04:01:10.839Z,15.25
2022-08-02T04:03:37.065Z,15.26
2022-08-02T04:06:04.254Z,15.11
2022-08-02T04:08:34.897Z,15.17
2022-08-02T04:11:03.609Z,15.20
2022-08-02T04:13:31.889Z,15.10
2022-08-02T04:16:02.152Z,15.28
2022-08-02T04:18:28.286Z,15.26
2022-08-02T04:20:54.423Z,15.26
2022-08-02T04:23:20.582Z,15.36
2022-08-02T04:25:48.010Z,15.34
2022-08-02T04:28:18.358Z,15.35
2022-08-02T04:30:44.733Z,15.35
2022-08-02T04:33:10.875Z,15.30
2022-08-02T04:35:37.019Z,15.37
2022-08-02T04:38:09.080Z,15.31
2022-08-02T04:40:36.566Z,15.34
2022-08-02T04:43:02.695Z,15.28
2022-08-02T04:45:28.834Z,15.36
2022-08-02T04:48:04.588Z,15.41
2022-08-02T04:50:31.361Z,15.29
2022-08-02T04:52:57.491Z,15.31
2022-08-02T04:55:23.614Z,15.32
2022-08-02T04:57:52.441Z,15.19
2022-08-02T05:00:19.660Z,15.29
2022-08-02T05:02:45.826Z,15.28
2022-08-02T05:05:11.975Z,15.36
2022-08-02T05:07:38.100Z,15.35
2022-08-02T05:10:04.221Z,15.41
2022-08-02T05:12:30.422Z,15.40
2022-08-02T05:14:56.537Z,15.39
2022-08-02T05:17:22.660Z,15.42
2022-08-02T05:19:48.814Z,15.55
2022-08-02T05:22:14.962Z,15.51
2022-08-02T05:24:41.110Z,15.48
2022-08-02T05:27:16.932Z,15.53
2022-08-02T05:29:53.718Z,15.51
2022-08-02T05:32:20.323Z,15.54
2022-08-02T05:34:49.810Z,15.47
2022-08-02T05:37:15.940Z,15.41
2022-08-02T05:39:55.524Z,15.48
2022-08-02T05:42:22.249Z,15.43
2022-08-02T05:44:48.421Z,15.52
2022-08-02T05:47:14.559Z,15.58
2022-08-02T05:49:40.758Z,15.63
2022-08-02T05:52:07.221Z,15.73
2022-08-02T05:54:33.361Z,15.76
2022-08-02T05:56:59.506Z,15.72
2022-08-02T05:59:25.648Z,15.70
2022-08-02T06:01:51.905Z,15.68
2022-08-02T06:04:18.145Z,15.71
2022-08-02T06:06:44.300Z,15.69
2022-08-02T06:09:10.428Z,15.72
2022-08-02T06:11:36.594Z,15.82
2022-08-02T06:14:02.779Z,15.89
2022-08-02T06:16:31.762Z,15.97
2022-08-02T06:18:58.833Z,16.09
2022-08-02T06:22:40.270Z,16.06
2022-08-02T06:24:11.098Z,16.13
2022-08-02T06:26:37.241Z,16.22
2022-08-02T06:29:03.384Z,16.40
2022-08-02T06:31:29.522Z,16.46
2022-08-02T06:33:55.679Z,16.50
2022-08-02T06:36:21.812Z,16.51
2022-08-02T06:38:50.836Z,16.66
2022-08-02T06:41:17.468Z,16.71
2022-08-02T06:43:43.606Z,16.76
2022-08-02T06:47:10.098Z,16.85
2022-08-02T06:48:56.000Z,16.87
2022-08-02T06:51:22.180Z,17.01
2022-08-02T06:53:48.312Z,17.14
2022-08-02T06:56:14.469Z,17.21
2022-08-02T06:58:40.588Z,17.28
2022-08-02T07:01:06.749Z,17.39
2022-08-02T07:03:32.927Z,17.51
2022-08-02T07:05:59.051Z,17.60
2022-08-02T07:08:25.183Z,17.74
2022-08-02T07:10:51.339Z,17.87
2022-08-02T07:13:17.539Z,17.97
2022-08-02T07:15:49.062Z,18.06
2022-08-02T07:18:15.621Z,18.16
2022-08-02T07:20:41.748Z,18.12
2022-08-02T07:23:07.977Z,18.22
2022-08-02T07:26:01.705Z,18.32
2022-08-02T07:28:24.373Z,18.39
2022-08-02T07:30:51.018Z,18.44
2022-08-02T07:33:37.439Z,18.55
2022-08-02T07:36:04.747Z,18.70
2022-08-02T07:38:31.632Z,18.82
2022-08-02T07:40:57.968Z,18.87
2022-08-02T07:43:24.446Z,18.89
2022-08-02T07:45:55.660Z,19.00
2022-08-02T07:48:26.622Z,19.20
2022-08-02T07:50:52.758Z,19.30
2022-08-02T07:53:18.908Z,19.37
2022-08-02T07:55:45.049Z,19.46
2022-08-02T07:58:12.480Z,19.61
2022-08-02T08:00:39.735Z,19.61
2022-08-02T08:03:05.895Z,19.75
2022-08-02T08:05:32.035Z,19.91
2022-08-02T08:07:58.159Z,20.02
2022-08-02T08:10:24.305Z,20.11
2022-08-02T08:12:50.430Z,20.20
2022-08-02T08:15:16.566Z,20.29
2022-08-02T08:17:42.717Z,20.30
2022-08-02T08:20:11.766Z,20.33
2022-08-02T08:22:40.246Z,20.43
2022-08-02T08:25:06.388Z,20.65
2022-08-02T08:27:33.208Z,20.72
2022-08-02T08:29:59.344Z,20.83
2022-08-02T08:32:25.881Z,20.96
2022-08-02T08:34:52.156Z,21.06
2022-08-02T08:37:18.811Z,21.09
2022-08-02T08:39:56.530Z,21.19
2022-08-02T08:42:23.793Z,21.27
2022-08-02T08:44:50.282Z,21.38
2022-08-02T08:47:16.427Z,21.36
2022-08-02T08:49:52.242Z,21.42
2022-08-02T08:52:19.063Z,21.47
2022-08-02T08:54:45.201Z,21.58
2022-08-02T08:57:14.798Z,21.70
2022-08-02T08:59:42.417Z,21.82
2022-08-02T09:02:19.591Z,21.87
2022-08-02T09:04:55.138Z,21.92
2022-08-02T09:07:21.572Z,22.00
2022-08-02T09:09:47.711Z,21.99
2022-08-02T09:12:14.321Z,22.21
2022-08-02T09:14:40.790Z,22.21
2022-08-02T09:17:06.970Z,22.29
2022-08-02T09:19:33.147Z,22.37
2022-08-02T09:21:59.303Z,22.49
2022-08-02T09:24:25.445Z,22.62
2022-08-02T09:26:57.938Z,22.61
2022-08-02T09:29:24.224Z,22.59
2022-08-02T09:31:50.390Z,22.59
2022-08-02T09:34:16.552Z,22.65
2022-08-02T09:36:46.235Z,22.73
2022-08-02T09:39:12.396Z,22.82
2022-08-02T09:41:38.558Z,22.79
2022-08-02T09:44:06.548Z,22.94
2022-08-02T09:46:33.191Z,23.06
2022-08-02T09:49:00.845Z,23.15
2022-08-02T09:51:27.010Z,23.20
2022-08-02T09:54:05.976Z,23.21
2022-08-02T09:56:35.828Z,23.29
2022-08-02T09:59:02.202Z,23.34
2022-08-02T10:01:35.570Z,23.51
2022-08-02T10:04:03.941Z,23.58
2022-08-02T10:06:30.737Z,23.62
2022-08-02T10:08:56.870Z,23.72
2022-08-02T10:11:23.037Z,23.88
2022-08-02T10:13:49.155Z,23.95
2022-08-02T10:16:15.310Z,23.90
2022-08-02T10:18:41.768Z,23.92
2022-08-02T10:21:07.976Z,23.96
2022-08-02T10:23:34.785Z,24.02
2022-08-02T10:26:00.935Z,24.18
2022-08-02T10:28:27.064Z,24.31
2022-08-02T10:30:53.203Z,24.47
2022-08-02T10:33:19.380Z,24.50
2022-08-02T10:35:45.526Z,24.69
2022-08-02T10:38:11.663Z,24.78
2022-08-02T10:40:37.815Z,24.73
2022-08-02T10:43:03.963Z,24.55
2022-08-02T10:45:30.107Z,24.44
2022-08-02T10:47:56.286Z,24.57
2022-08-02T10:50:22.407Z,24.71
2022-08-02T10:52:48.542Z,24.86
2022-08-02T10:55:22.498Z,24.91
2022-08-02T10:57:50.025Z,24.77
2022-08-02T11:00:19.351Z,24.81
2022-08-02T11:02:45.795Z,24.76
2022-08-02T11:05:11.922Z,25.06
2022-08-02T11:07:38.059Z,25.17
2022-08-02T11:10:04.219Z,25.22
2022-08-02T11:12:30.353Z,25.21
2022-08-02T11:14:56.482Z,25.31
2022-08-02T11:17:22.681Z,25.13
2022-08-02T11:19:48.806Z,25.11
2022-08-02T11:22:15.640Z,25.07
2022-08-02T11:24:44.150Z,25.04
2022-08-02T11:27:10.395Z,25.14
2022-08-02T11:29:38.332Z,25.36
2022-08-02T11:32:05.095Z,25.35
2022-08-02T11:34:37.273Z,25.57
2022-08-02T11:37:04.027Z,25.68
2022-08-02T11:39:30.172Z,25.72
2022-08-02T11:41:56.330Z,25.65
2022-08-02T11:44:24.010Z,25.72
2022-08-02T11:46:50.712Z,25.67
2022-08-02T11:49:16.919Z,25.69
2022-08-02T11:51:43.118Z,25.82
2022-08-02T11:54:09.270Z,25.92
2022-08-02T11:56:36.087Z,25.88
2022-08-02T11:59:02.230Z,25.96
2022-08-02T12:01:28.892Z,25.96
2022-08-02T12:03:55.076Z,26.10
2022-08-02T12:06:21.243Z,26.28
2022-08-02T12:08:52.006Z,26.56
2022-08-02T12:11:21.037Z,26.35
2022-08-02T12:13:56.831Z,26.46
2022-08-02T12:16:23.618Z,26.68
2022-08-02T12:18:55.459Z,26.75
2022-08-02T12:21:22.318Z,26.63
2022-08-02T12:23:59.540Z,26.65
2022-08-02T12:26:27.298Z,26.76
2022-08-02T12:28:53.452Z,26.82
2022-08-02T12:31:19.603Z,26.95
2022-08-02T12:33:45.735Z,26.94
2022-08-02T12:36:11.901Z,26.97
2022-08-02T12:38:39.974Z,26.88
2022-08-02T12:41:06.161Z,26.49
2022-08-02T12:43:52.302Z,26.50
2022-08-02T12:46:18.430Z,26.62
2022-08-02T12:48:56.778Z,26.83
2022-08-02T12:51:50.772Z,26.94
2022-08-02T12:54:17.887Z,26.95
2022-08-02T12:56:44.560Z,27.09
2022-08-02T12:59:10.714Z,27.09
2022-08-02T13:01:36.868Z,27.28
2022-08-02T13:04:09.059Z,27.32
2022-08-02T13:06:43.926Z,27.16
2022-08-02T13:09:11.154Z,27.09
2022-08-02T13:11:37.288Z,27.19
2022-08-02T13:14:03.418Z,27.39
2022-08-02T13:16:30.663Z,27.44
2022-08-02T13:18:57.721Z,27.56
2022-08-02T13:21:41.554Z,27.56
2022-08-02T13:24:32.806Z,27.38
2022-08-02T13:26:56.232Z,27.47
2022-08-02T13:29:22.390Z,27.52
2022-08-02T13:31:48.560Z,27.26
2022-08-02T13:34:14.702Z,27.25
2022-08-02T13:36:40.865Z,27.27
2022-08-02T13:39:06.998Z,27.19
2022-08-02T13:41:33.138Z,27.34
2022-08-02T13:44:08.937Z,27.30
2022-08-02T13:46:36.333Z,27.51
2022-08-02T13:49:02.542Z,27.71
2022-08-02T13:51:28.714Z,27.69
2022-08-02T13:53:54.840Z,27.63
2022-08-02T13:56:20.978Z,27.79
2022-08-02T13:59:02.118Z,27.81
2022-08-02T14:01:48.352Z,27.54
2022-08-02T14:04:14.634Z,27.72
2022-08-02T14:06:40.779Z,27.83
2022-08-02T14:09:07.045Z,27.90
2022-08-02T14:11:33.184Z,27.95
2022-08-02T14:13:59.325Z,27.99
2022-08-02T14:16:33.017Z,28.11
2022-08-02T14:18:59.468Z,28.00
2022-08-02T14:21:25.597Z,28.20
2022-08-02T14:23:51.771Z,28.38
2022-08-02T14:26:27.049Z,28.53
2022-08-02T14:28:54.114Z,28.51
2022-08-02T14:31:20.244Z,28.42
2022-08-02T14:33:46.390Z,28.38
2022-08-02T14:36:12.545Z,28.61
2022-08-02T14:38:38.681Z,28.82
2022-08-02T14:41:04.825Z,29.19
2022-08-02T14:43:30.966Z,29.30
2022-08-02T14:45:57.147Z,29.05
2022-08-02T14:48:23.285Z,29.11
2022-08-02T14:50:49.493Z,29.05
2022-08-02T14:53:15.638Z,29.31
2022-08-02T14:55:41.787Z,29.54
2022-08-02T14:58:08.626Z,30.04
2022-08-02T15:00:40.107Z,30.10
2022-08-02T15:03:06.928Z,30.08
2022-08-02T15:05:35.634Z,30.12
2022-08-02T15:08:01.758Z,30.52
2022-08-02T15:10:27.915Z,30.79
2022-08-02T15:12:54.092Z,31.17
2022-08-02T15:15:20.232Z,30.89
2022-08-02T15:17:46.373Z,30.75
2022-08-02T15:20:25.531Z,30.93
2022-08-02T15:22:52.237Z,31.25
2022-08-02T15:25:18.410Z,31.45
2022-08-02T15:27:44.589Z,31.24
2022-08-02T15:30:10.721Z,31.34
2022-08-02T15:32:36.876Z,31.09
2022-08-02T15:35:03.015Z,31.21
2022-08-02T15:37:31.110Z,31.69
2022-08-02T15:39:57.385Z,31.75
2022-08-02T15:42:30.519Z,31.94
2022-08-02T15:44:56.991Z,31.57
2022-08-02T15:47:23.154Z,31.51
2022-08-02T15:49:49.354Z,31.54
2022-08-02T15:52:16.153Z,31.62
2022-08-02T15:54:42.626Z,31.77
2022-08-02T15:57:08.744Z,31.89
2022-08-02T15:59:34.878Z,31.76
2022-08-02T16:02:01.669Z,32.55
2022-08-02T16:04:27.876Z,32.39
2022-08-02T16:06:54.010Z,32.59
2022-08-02T16:09:20.174Z,32.32
2022-08-02T16:11:46.296Z,32.26
2022-08-02T16:14:12.430Z,32.67
2022-08-02T16:16:38.577Z,32.87
2022-08-02T16:19:47.462Z,32.72
2022-08-02T16:21:51.265Z,32.45
2022-08-02T16:24:17.412Z,32.19
2022-08-02T16:26:43.543Z,31.99
2022-08-02T16:29:09.689Z,31.94
2022-08-02T16:31:41.559Z,32.38
2022-08-02T16:34:08.514Z,32.71
2022-08-02T16:36:34.662Z,33.16
2022-08-02T16:39:00.791Z,33.30
2022-08-02T16:41:50.716Z,33.20
2022-08-02T16:44:13.059Z,33.12
2022-08-02T16:46:39.195Z,33.40
2022-08-02T16:49:06.181Z,33.61
2022-08-02T16:51:52.262Z,33.73
2022-08-02T16:54:18.720Z,33.31
2022-08-02T16:56:45.177Z,33.30
2022-08-02T16:59:12.865Z,33.74
2022-08-02T17:04:25.356Z,33.92
2022-08-02T17:06:52.050Z,33.58
2022-08-02T17:10:01.820Z,32.97
2022-08-02T17:12:04.486Z,33.02
2022-08-02T17:14:31.120Z,33.01
2022-08-02T17:16:57.273Z,33.68
2022-08-02T17:19:23.975Z,34.07
2022-08-02T17:21:50.105Z,34.45
2022-08-02T17:24:16.386Z,33.95
2022-08-02T17:26:45.915Z,33.89
2022-08-02T17:29:16.425Z,34.41
2022-08-02T17:31:46.554Z,34.81
2022-08-02T17:34:29.080Z,34.77
2022-08-02T17:36:56.813Z,34.32
2022-08-02T17:39:22.944Z,34.38
2022-08-02T17:41:50.609Z,34.33
2022-08-02T17:44:16.807Z,34.33
2022-08-02T17:47:02.936Z,34.92
2022-08-02T17:49:29.173Z,34.67
2022-08-02T17:52:48.176Z,34.35
2022-08-02T17:54:42.158Z,34.65
2022-08-02T17:57:09.883Z,34.51
2022-08-02T17:59:41.901Z,33.72
2022-08-02T18:02:08.466Z,33.87
2022-08-02T18:04:34.605Z,34.06
2022-08-02T18:07:03.897Z,33.72
2022-08-02T18:09:31.026Z,33.12
2022-08-02T18:11:57.840Z,33.34
2022-08-02T18:17:10.128Z,33.20
2022-08-02T18:19:49.312Z,33.06
2022-08-02T18:22:24.923Z,32.71
2022-08-02T18:24:52.599Z,32.51
2022-08-02T18:27:18.717Z,32.32
2022-08-02T18:29:46.677Z,32.41
2022-08-02T18:32:13.701Z,32.18
2022-08-02T18:34:39.965Z,32.20
2022-08-02T18:37:06.182Z,32.22
2022-08-02T18:39:33.106Z,31.98
2022-08-02T18:41:59.277Z,31.81
2022-08-02T18:44:28.197Z,31.74
2022-08-02T18:46:54.334Z,31.60
2022-08-02T18:49:20.662Z,31.31
2022-08-02T18:51:46.914Z,31.26
2022-08-02T18:54:13.057Z,31.21
2022-08-02T18:56:39.760Z,30.86
2022-08-02T18:59:05.954Z,30.88
2022-08-02T19:01:35.114Z,30.72
2022-08-02T19:04:05.737Z,30.20
2022-08-02T19:06:35.212Z,29.86
2022-08-02T19:09:12.608Z,29.66
2022-08-02T19:11:40.807Z,29.49
2022-08-02T19:14:07.365Z,29.32
2022-08-02T19:16:36.964Z,29.18
2022-08-02T19:19:19.633Z,28.96
2022-08-02T19:22:15.999Z,28.82
2022-08-02T19:24:31.872Z,28.61
2022-08-02T19:27:04.776Z,28.46
2022-08-02T19:29:43.193Z,28.37
2022-08-02T19:32:42.068Z,28.28
2022-08-02T19:35:01.538Z,28.18
2022-08-02T19:37:31.532Z,27.95
2022-08-02T19:40:04.704Z,27.63
2022-08-02T19:42:32.720Z,27.44
2022-08-02T19:45:18.834Z,27.04
2022-08-02T19:48:04.965Z,26.90
2022-08-02T19:50:31.109Z,26.98
2022-08-02T19:52:57.245Z,26.88
2022-08-02T19:55:59.489Z,26.82
2022-08-02T19:58:09.499Z,26.80
2022-08-02T20:00:35.728Z,26.67
2022-08-02T20:03:01.927Z,26.50
2022-08-02T20:05:28.249Z,26.51
2022-08-02T20:07:56.495Z,26.36
2022-08-02T20:10:24.637Z,26.25
2022-08-02T20:12:51.659Z,26.02
2022-08-02T20:15:17.808Z,25.99
2022-08-02T20:17:47.542Z,25.95
2022-08-02T20:20:15.199Z,25.79
2022-08-02T20:22:41.346Z,25.76
2022-08-02T20:25:09.843Z,25.65
2022-08-02T20:27:51.113Z,25.58
2022-08-02T20:30:17.645Z,25.38
2022-08-02T20:32:43.793Z,25.33
2022-08-02T20:35:18.917Z,25.32
2022-08-02T20:38:00.971Z,25.18
2022-08-02T20:40:28.502Z,25.14
2022-08-02T20:42:54.647Z,25.07
2022-08-02T20:45:20.811Z,24.87
2022-08-02T20:47:50.791Z,24.74
2022-08-02T20:50:17.446Z,24.59
2022-08-02T20:52:44.098Z,24.48
2022-08-02T20:55:16.898Z,24.41
2022-08-02T20:58:00.613Z,24.29
2022-08-02T21:00:27.405Z,24.36
2022-08-02T21:02:53.549Z,24.25
2022-08-02T21:05:19.705Z,24.13
2022-08-02T21:07:53.560Z,24.10
2022-08-02T21:10:21.145Z,24.08
2022-08-02T21:12:50.286Z,23.90
2022-08-02T21:15:16.444Z,23.89
2022-08-02T21:17:50.355Z,23.83
2022-08-02T21:20:27.425Z,23.76
2022-08-02T21:22:55.415Z,23.74
2022-08-02T21:25:21.540Z,23.57
2022-08-02T21:27:53.339Z,23.57
2022-08-02T21:30:20.116Z,23.49
2022-08-02T21:32:50.556Z,23.43
2022-08-02T21:35:17.657Z,23.24
2022-08-02T21:37:45.077Z,23.24
2022-08-02T21:40:11.386Z,23.10
2022-08-02T21:42:37.513Z,23.09
2022-08-02T21:45:12.068Z,22.96
2022-08-02T21:47:43.730Z,22.99
2022-08-02T21:50:13.139Z,22.92
2022-08-02T21:52:42.390Z,22.85
2022-08-02T21:55:21.263Z,22.77
2022-08-02T21:57:50.596Z,22.73
2022-08-02T22:00:16.738Z,22.67
2022-08-02T22:02:54.834Z,22.60
2022-08-02T22:05:20.975Z,22.57
2022-08-02T22:07:47.143Z,22.64
2022-08-02T22:10:17.211Z,22.43
2022-08-02T22:12:43.358Z,22.52
2022-08-02T22:15:11.141Z,22.51
2022-08-02T22:17:50.713Z,22.42
2022-08-02T22:20:21.268Z,22.49
2022-08-02T22:22:48.172Z,22.46
2022-08-02T22:25:27.212Z,22.41
2022-08-02T22:28:37.775Z,22.32
2022-08-02T22:30:52.964Z,22.18
2022-08-02T22:33:19.321Z,22.08
2022-08-02T22:35:45.451Z,22.09
2022-08-02T22:38:17.310Z,22.03
2022-08-02T22:40:44.676Z,21.90
2022-08-02T22:43:10.809Z,21.88
2022-08-02T22:45:37.758Z,21.87
2022-08-02T22:48:04.334Z,21.93
2022-08-02T22:50:30.536Z,21.86
2022-08-02T22:52:56.711Z,21.75
2022-08-02T22:55:23.776Z,21.74
2022-08-02T22:57:56.438Z,21.64
2022-08-02T22:58:36.281Z,33.68
2022-08-02T22:58:57.040Z,33.14
2022-08-02T23:00:23.306Z,21.66
2022-08-02T23:02:49.480Z,21.74
2022-08-02T23:05:15.619Z,21.78
2022-08-02T23:07:41.751Z,21.63
2022-08-02T23:10:07.924Z,21.60
2022-08-02T23:12:34.075Z,21.44
2022-08-02T23:15:00.218Z,21.37
2022-08-02T23:17:26.404Z,21.39
2022-08-02T23:19:52.612Z,21.33
2022-08-02T23:22:18.797Z,21.35
2022-08-02T23:24:46.114Z,21.28
2022-08-02T23:27:12.248Z,21.19
2022-08-02T23:29:38.372Z,21.19
2022-08-02T23:32:04.544Z,21.17
2022-08-02T23:34:32.595Z,21.13
2022-08-02T23:36:58.725Z,20.97
2022-08-02T23:39:24.887Z,20.91
2022-08-02T23:41:55.126Z,20.89
2022-08-02T23:44:21.587Z,20.95
2022-08-02T23:46:47.763Z,20.91
2022-08-02T23:49:13.965Z,20.88
2022-08-02T23:51:40.164Z,20.77
2022-08-02T23:54:06.325Z,20.70
2022-08-02T23:56:32.465Z,20.69
2022-08-02T23:58:58.610Z,20.65
